sensor_id;sensor_type;location;lat;lon;timestamp;pressure;altitude;pressure_sealevel;temperature;humidity
48606;BME280;8482;54.396;18.590;2024-03-02T16:33:51;101097.25;;;10.20;86.70
48606;BME280;8482;54.396;18.590;2024-03-02T16:36:17;101104.25;;;10.21;88.30
48606;BME280;8482;54.396;18.590;2024-03-02T16:38:44;101100.84;;;10.19;88.47
48606;BME280;8482;54.396;18.590;2024-03-02T16:41:10;101106.03;;;10.20;88.89
48606;BME280;8482;54.396;18.590;2024-03-02T16:43:36;101105.31;;;10.18;88.55
48606;BME280;8482;54.396;18.590;2024-03-02T16:46:04;101103.28;;;10.22;88.40
48606;BME280;8482;54.396;18.590;2024-03-02T16:48:31;101107.66;;;10.23;88.42
48606;BME280;8482;54.396;18.590;2024-03-02T16:50:58;101105.00;;;10.23;87.76
48606;BME280;8482;54.396;18.590;2024-03-02T16:53:23;101107.53;;;10.24;87.85
48606;BME280;8482;54.396;18.590;2024-03-02T16:55:49;101107.41;;;10.26;88.02
48606;BME280;8482;54.396;18.590;2024-03-02T16:58:18;101113.69;;;10.25;88.15
48606;BME280;8482;54.396;18.590;2024-03-02T17:00:45;101122.34;;;10.27;88.04
48606;BME280;8482;54.396;18.590;2024-03-02T17:03:11;101123.09;;;10.29;87.62
48606;BME280;8482;54.396;18.590;2024-03-02T17:05:36;101138.06;;;10.30;87.47
48606;BME280;8482;54.396;18.590;2024-03-02T17:08:02;101124.69;;;10.32;87.77
48606;BME280;8482;54.396;18.590;2024-03-02T17:10:29;101125.41;;;10.34;87.63
48606;BME280;8482;54.396;18.590;2024-03-02T17:12:54;101130.84;;;10.32;87.21
48606;BME280;8482;54.396;18.590;2024-03-02T17:15:21;101129.03;;;10.33;86.96
48606;BME280;8482;54.396;18.590;2024-03-02T17:17:47;101129.88;;;10.33;87.24
48606;BME280;8482;54.396;18.590;2024-03-02T17:20:13;101137.84;;;10.33;86.95
48606;BME280;8482;54.396;18.590;2024-03-02T17:22:40;101135.06;;;10.35;86.81
48606;BME280;8482;54.396;18.590;2024-03-02T17:25:07;101132.41;;;10.35;86.93
48606;BME280;8482;54.396;18.590;2024-03-02T17:27:33;101133.38;;;10.34;86.99
48606;BME280;8482;54.396;18.590;2024-03-02T17:29:59;101125.41;;;10.34;86.87
48606;BME280;8482;54.396;18.590;2024-03-02T17:32:25;101125.66;;;10.31;86.92
48606;BME280;8482;54.396;18.590;2024-03-02T17:34:51;101133.50;;;10.32;86.67
48606;BME280;8482;54.396;18.590;2024-03-02T17:37:17;101129.25;;;10.30;86.63
48606;BME280;8482;54.396;18.590;2024-03-02T17:39:43;101140.69;;;10.30;86.80
48606;BME280;8482;54.396;18.590;2024-03-02T17:42:10;101146.97;;;10.29;86.66
48606;BME280;8482;54.396;18.590;2024-03-02T17:44:36;101140.91;;;10.27;86.88
48606;BME280;8482;54.396;18.590;2024-03-02T17:47:02;101135.72;;;10.25;86.84
48606;BME280;8482;54.396;18.590;2024-03-02T17:49:32;101143.69;;;10.25;86.54
48606;BME280;8482;54.396;18.590;2024-03-02T17:51:57;101149.94;;;10.24;87.16
48606;BME280;8482;54.396;18.590;2024-03-02T17:54:23;101145.50;;;10.25;86.72
48606;BME280;8482;54.396;18.590;2024-03-02T17:56:49;101148.38;;;10.22;86.52
48606;BME280;8482;54.396;18.590;2024-03-02T17:59:15;101145.72;;;10.22;86.87
48606;BME280;8482;54.396;18.590;2024-03-02T18:01:41;101153.75;;;10.20;86.51
48606;BME280;8482;54.396;18.590;2024-03-02T18:04:07;101152.19;;;10.18;86.54
48606;BME280;8482;54.396;18.590;2024-03-02T18:06:33;101158.78;;;10.12;86.63
48606;BME280;8482;54.396;18.590;2024-03-02T18:08:59;101159.50;;;10.14;87.18
48606;BME280;8482;54.396;18.590;2024-03-02T18:11:26;101151.78;;;10.11;87.17
48606;BME280;8482;54.396;18.590;2024-03-02T18:13:53;101151.16;;;10.07;87.57
48606;BME280;8482;54.396;18.590;2024-03-02T18:16:19;101153.88;;;10.06;87.62
48606;BME280;8482;54.396;18.590;2024-03-02T18:18:46;101164.72;;;10.03;87.67
48606;BME280;8482;54.396;18.590;2024-03-02T18:21:14;101156.88;;;10.01;87.56
48606;BME280;8482;54.396;18.590;2024-03-02T18:23:39;101154.88;;;9.92;88.05
48606;BME280;8482;54.396;18.590;2024-03-02T18:26:06;101162.50;;;9.96;88.11
48606;BME280;8482;54.396;18.590;2024-03-02T18:28:32;101159.34;;;9.91;88.10
48606;BME280;8482;54.396;18.590;2024-03-02T18:30:58;101159.34;;;9.91;88.46
48606;BME280;8482;54.396;18.590;2024-03-02T18:33:25;101162.28;;;9.87;88.49
48606;BME280;8482;54.396;18.590;2024-03-02T18:35:50;101162.28;;;9.87;88.58
48606;BME280;8482;54.396;18.590;2024-03-02T18:38:16;101161.56;;;9.85;87.99
48606;BME280;8482;54.396;18.590;2024-03-02T18:40:42;101168.75;;;9.82;88.51
48606;BME280;8482;54.396;18.590;2024-03-02T18:43:13;101161.03;;;9.79;88.80
48606;BME280;8482;54.396;18.590;2024-03-02T18:45:39;101164.63;;;9.78;88.25
48606;BME280;8482;54.396;18.590;2024-03-02T18:48:26;101152.84;;;9.70;88.51
48606;BME280;8482;54.396;18.590;2024-03-02T18:50:58;101163.38;;;9.71;88.86
48606;BME280;8482;54.396;18.590;2024-03-02T18:53:27;101166.00;;;9.71;88.60
48606;BME280;8482;54.396;18.590;2024-03-02T18:55:58;101155.06;;;9.63;88.84
48606;BME280;8482;54.396;18.590;2024-03-02T18:58:41;101158.59;;;9.63;88.62
48606;BME280;8482;54.396;18.590;2024-03-02T19:01:26;101157.63;;;9.64;88.50
48606;BME280;8482;54.396;18.590;2024-03-02T19:04:00;101149.97;;;9.60;88.59
48606;BME280;8482;54.396;18.590;2024-03-02T19:06:29;101165.47;;;9.66;88.62
48606;BME280;8482;54.396;18.590;2024-03-02T19:08:55;101161.25;;;9.63;88.53
48606;BME280;8482;54.396;18.590;2024-03-02T19:11:23;101157.53;;;9.66;88.52
48606;BME280;8482;54.396;18.590;2024-03-02T19:13:49;101166.31;;;9.66;88.66
48606;BME280;8482;54.396;18.590;2024-03-02T19:16:16;101170.75;;;9.66;88.76
48606;BME280;8482;54.396;18.590;2024-03-02T19:18:43;101164.84;;;9.62;88.40
48606;BME280;8482;54.396;18.590;2024-03-02T19:21:10;101164.91;;;9.61;88.94
48606;BME280;8482;54.396;18.590;2024-03-02T19:23:36;101169.94;;;9.65;88.45
48606;BME280;8482;54.396;18.590;2024-03-02T19:26:24;101167.47;;;9.62;88.13
48606;BME280;8482;54.396;18.590;2024-03-02T19:28:50;101168.53;;;9.60;88.18
48606;BME280;8482;54.396;18.590;2024-03-02T19:31:16;101168.53;;;9.60;88.13
48606;BME280;8482;54.396;18.590;2024-03-02T19:33:42;101166.84;;;9.59;88.12
48606;BME280;8482;54.396;18.590;2024-03-02T19:36:08;101168.75;;;9.57;88.20
48606;BME280;8482;54.396;18.590;2024-03-02T19:38:34;101170.66;;;9.55;88.08
48606;BME280;8482;54.396;18.590;2024-03-02T19:41:06;101161.00;;;9.54;88.57
48606;BME280;8482;54.396;18.590;2024-03-02T19:43:35;101168.09;;;9.53;88.43
48606;BME280;8482;54.396;18.590;2024-03-02T19:46:01;101177.03;;;9.52;88.29
48606;BME280;8482;54.396;18.590;2024-03-02T19:48:27;101171.81;;;9.50;88.29
48606;BME280;8482;54.396;18.590;2024-03-02T19:50:53;101167.47;;;9.49;88.31
48606;BME280;8482;54.396;18.590;2024-03-02T19:53:24;101171.91;;;9.49;88.27
48606;BME280;8482;54.396;18.590;2024-03-02T19:55:51;101168.53;;;9.47;88.30
48606;BME280;8482;54.396;18.590;2024-03-02T19:58:23;101170.31;;;9.46;88.68
48606;BME280;8482;54.396;18.590;2024-03-02T20:00:52;101168.63;;;9.45;88.57
48606;BME280;8482;54.396;18.590;2024-03-02T20:03:18;101172.94;;;9.46;88.63
48606;BME280;8482;54.396;18.590;2024-03-02T20:05:45;101165.88;;;9.47;88.79
48606;BME280;8482;54.396;18.590;2024-03-02T20:08:11;101167.66;;;9.46;88.64
48606;BME280;8482;54.396;18.590;2024-03-02T20:10:37;101170.31;;;9.46;88.72
48606;BME280;8482;54.396;18.590;2024-03-02T20:13:03;101166.81;;;9.46;88.76
48606;BME280;8482;54.396;18.590;2024-03-02T20:15:34;101170.41;;;9.45;88.81
48606;BME280;8482;54.396;18.590;2024-03-02T20:18:00;101172.25;;;9.44;88.90
48606;BME280;8482;54.396;18.590;2024-03-02T20:20:26;101169.66;;;9.43;88.64
48606;BME280;8482;54.396;18.590;2024-03-02T20:22:52;101171.38;;;9.44;88.74
48606;BME280;8482;54.396;18.590;2024-03-02T20:25:18;101172.44;;;9.41;88.29
48606;BME280;8482;54.396;18.590;2024-03-02T20:27:44;101171.69;;;9.39;88.63
48606;BME280;8482;54.396;18.590;2024-03-02T20:30:12;101168.28;;;9.37;88.68
48606;BME280;8482;54.396;18.590;2024-03-02T20:32:38;101172.84;;;9.35;88.98
48606;BME280;8482;54.396;18.590;2024-03-02T20:35:05;101174.66;;;9.34;89.08
48606;BME280;8482;54.396;18.590;2024-03-02T20:37:31;101178.25;;;9.33;88.98
48606;BME280;8482;54.396;18.590;2024-03-02T20:39:57;101167.34;;;9.25;89.01
48606;BME280;8482;54.396;18.590;2024-03-02T20:42:25;101172.41;;;9.28;89.32
48606;BME280;8482;54.396;18.590;2024-03-02T20:44:53;101177.59;;;9.30;89.04
48606;BME280;8482;54.396;18.590;2024-03-02T20:47:19;101180.44;;;9.27;88.85
48606;BME280;8482;54.396;18.590;2024-03-02T20:49:48;101177.25;;;9.22;89.23
48606;BME280;8482;54.396;18.590;2024-03-02T20:52:16;101184.25;;;9.23;88.96
48606;BME280;8482;54.396;18.590;2024-03-02T20:54:45;101192.09;;;9.24;89.13
48606;BME280;8482;54.396;18.590;2024-03-02T20:57:11;101191.44;;;9.20;89.54
48606;BME280;8482;54.396;18.590;2024-03-02T20:59:37;101181.91;;;9.18;89.48
48606;BME280;8482;54.396;18.590;2024-03-02T21:02:04;101180.31;;;9.15;89.37
48606;BME280;8482;54.396;18.590;2024-03-02T21:04:29;101178.81;;;9.11;89.68
48606;BME280;8482;54.396;18.590;2024-03-02T21:06:55;101182.22;;;9.13;90.04
48606;BME280;8482;54.396;18.590;2024-03-02T21:09:21;101192.81;;;9.13;90.00
48606;BME280;8482;54.396;18.590;2024-03-02T21:11:47;101187.63;;;9.12;89.85
48606;BME280;8482;54.396;18.590;2024-03-02T21:14:14;101189.59;;;9.08;89.75
48606;BME280;8482;54.396;18.590;2024-03-02T21:16:40;101200.19;;;9.08;90.07
48606;BME280;8482;54.396;18.590;2024-03-02T21:19:09;101198.28;;;9.10;89.90
48606;BME280;8482;54.396;18.590;2024-03-02T21:21:37;101195.00;;;9.07;89.95
48606;BME280;8482;54.396;18.590;2024-03-02T21:24:05;101185.47;;;9.04;90.07
48606;BME280;8482;54.396;18.590;2024-03-02T21:26:31;101186.22;;;9.06;90.24
48606;BME280;8482;54.396;18.590;2024-03-02T21:28:57;101193.94;;;9.09;90.26
48606;BME280;8482;54.396;18.590;2024-03-02T21:31:23;101190.53;;;9.07;90.30
48606;BME280;8482;54.396;18.590;2024-03-02T21:33:49;101189.50;;;9.10;90.75
48606;BME280;8482;54.396;18.590;2024-03-02T21:36:15;101193.88;;;9.11;90.84
48606;BME280;8482;54.396;18.590;2024-03-02T21:38:41;101194.69;;;9.11;90.48
48606;BME280;8482;54.396;18.590;2024-03-02T21:41:14;101189.41;;;9.11;90.81
48606;BME280;8482;54.396;18.590;2024-03-02T21:43:40;101181.78;;;9.07;90.55
48606;BME280;8482;54.396;18.590;2024-03-02T21:46:13;101184.88;;;9.13;90.32
48606;BME280;8482;54.396;18.590;2024-03-02T21:48:39;101176.16;;;9.11;90.41
48606;BME280;8482;54.396;18.590;2024-03-02T21:51:05;101183.06;;;9.14;90.17
48606;BME280;8482;54.396;18.590;2024-03-02T21:53:31;101179.69;;;9.12;90.28
48606;BME280;8482;54.396;18.590;2024-03-02T21:55:57;101187.50;;;9.13;90.38
48606;BME280;8482;54.396;18.590;2024-03-02T21:58:22;101181.56;;;9.10;90.18
48606;BME280;8482;54.396;18.590;2024-03-02T22:00:48;101182.41;;;9.10;90.17
48606;BME280;8482;54.396;18.590;2024-03-02T22:03:14;101178.72;;;9.13;90.27
48606;BME280;8482;54.396;18.590;2024-03-02T22:05:40;101178.72;;;9.13;90.46
48606;BME280;8482;54.396;18.590;2024-03-02T22:08:07;101172.03;;;9.07;90.02
48606;BME280;8482;54.396;18.590;2024-03-02T22:10:33;101174.47;;;9.10;90.28
48606;BME280;8482;54.396;18.590;2024-03-02T22:12:59;101177.13;;;9.10;90.23
48606;BME280;8482;54.396;18.590;2024-03-02T22:15:25;101182.41;;;9.10;90.28
48606;BME280;8482;54.396;18.590;2024-03-02T22:17:51;101175.41;;;9.09;90.15
48606;BME280;8482;54.396;18.590;2024-03-02T22:20:18;101191.22;;;9.11;90.31
48606;BME280;8482;54.396;18.590;2024-03-02T22:22:44;101182.41;;;9.10;90.07
48606;BME280;8482;54.396;18.590;2024-03-02T22:25:10;101187.81;;;9.09;90.02
48606;BME280;8482;54.396;18.590;2024-03-02T22:27:36;101185.25;;;9.07;90.11
48606;BME280;8482;54.396;18.590;2024-03-02T22:30:06;101183.59;;;9.06;90.55
48606;BME280;8482;54.396;18.590;2024-03-02T22:32:32;101185.25;;;9.07;90.24
48606;BME280;8482;54.396;18.590;2024-03-02T22:34:58;101180.81;;;9.08;90.12
48606;BME280;8482;54.396;18.590;2024-03-02T22:37:24;101184.41;;;9.07;89.79
48606;BME280;8482;54.396;18.590;2024-03-02T22:39:50;101172.25;;;9.04;90.31
48606;BME280;8482;54.396;18.590;2024-03-02T22:42:16;101175.72;;;9.04;90.02
48606;BME280;8482;54.396;18.590;2024-03-02T22:44:42;101180.19;;;9.04;90.03
48606;BME280;8482;54.396;18.590;2024-03-02T22:47:07;101179.31;;;9.03;89.95
48606;BME280;8482;54.396;18.590;2024-03-02T22:49:33;101186.41;;;9.03;89.97
48606;BME280;8482;54.396;18.590;2024-03-02T22:51:59;101180.56;;;8.98;90.12
48606;BME280;8482;54.396;18.590;2024-03-02T22:54:25;101176.78;;;9.02;90.03
48606;BME280;8482;54.396;18.590;2024-03-02T22:56:51;101183.13;;;8.99;89.90
48606;BME280;8482;54.396;18.590;2024-03-02T22:59:17;101183.97;;;9.00;89.66
48606;BME280;8482;54.396;18.590;2024-03-02T23:01:43;101185.78;;;8.99;89.60
48606;BME280;8482;54.396;18.590;2024-03-02T23:04:10;101178.88;;;8.97;89.66
48606;BME280;8482;54.396;18.590;2024-03-02T23:06:36;101175.38;;;8.96;89.97
48606;BME280;8482;54.396;18.590;2024-03-02T23:09:02;101183.41;;;8.95;89.88
48606;BME280;8482;54.396;18.590;2024-03-02T23:11:29;101184.34;;;8.94;90.14
48606;BME280;8482;54.396;18.590;2024-03-02T23:13:54;101176.41;;;8.94;90.17
48606;BME280;8482;54.396;18.590;2024-03-02T23:16:20;101181.72;;;8.94;90.08
48606;BME280;8482;54.396;18.590;2024-03-02T23:18:46;101172.00;;;8.94;89.93
48606;BME280;8482;54.396;18.590;2024-03-02T23:21:12;101172.94;;;8.93;89.91
48606;BME280;8482;54.396;18.590;2024-03-02T23:23:38;101163.31;;;8.92;89.87
48606;BME280;8482;54.396;18.590;2024-03-02T23:26:04;101165.94;;;8.92;89.91
48606;BME280;8482;54.396;18.590;2024-03-02T23:28:33;101168.69;;;8.91;89.92
48606;BME280;8482;54.396;18.590;2024-03-02T23:30:59;101169.53;;;8.91;89.87
48606;BME280;8482;54.396;18.590;2024-03-02T23:33:24;101159.81;;;8.92;89.95
48606;BME280;8482;54.396;18.590;2024-03-02T23:35:50;101169.53;;;8.91;89.97
48606;BME280;8482;54.396;18.590;2024-03-02T23:38:16;101172.19;;;8.91;89.62
48606;BME280;8482;54.396;18.590;2024-03-02T23:40:42;101162.56;;;8.90;89.73
48606;BME280;8482;54.396;18.590;2024-03-02T23:43:28;101165.31;;;8.88;89.56
